Aérodrome :
LOGIN :

S'inscrire | Disclaimer

   EN    FR    IT 

 










Légende :    VFR   VFR Marginal   IFR   IFR Intensif   IFR Très Intensif
Visi : 
Plafond : 
>= 8 km
>= 3000ft
5 à 8 km
1000 à 3000 ft
1500m à 5 km
500 à 1000 ft
800 à 1500m
200 à 500 ft
< 800m
< 200 ft
Symboles :   Orages  Brouillard  Fortes neiges  Fortes précipitations  Vent > 20 kt
SIGMETs :   Divers  Orages  Givrage  Turbulence  Onde Orograph.  Cendres Volcan.







- Altitude de l'aérodrome : 1411 ft
- Code IATA : SZG


LOWS - Salzburg

DERNIER METAR :
  • 240120Z AUTO 16009KT 9999 FEW130 M00/M02 Q1028

METARs EXPIRÉS :
  • 240050Z AUTO 16009KT 9999 NSC M01/M02 Q1028
  • 240020Z AUTO 16009KT 9999 FEW210 M00/M01 Q1028
  • 232350Z AUTO 15008KT 9999 FEW170 BKN230 01/M01 Q1028
  • 232320Z AUTO 16009KT 9999 FEW180 SCT230 01/M01 Q1027
  • 232250Z AUTO 17011KT 9999 OVC170 02/M00 Q1027

TAF TAF LOWS
Valide du 24 à 00h jusqu'au 25 à 00h UTC


232315Z 2400/2424 15007KT 9999 FEW050 TX11/2413Z TN04/2400Z
TEMPO 2403/2409 BKN045
Pas de NOTAMs connus pour ce terrain.



MET'MAP, la Météo Aéronautique d'un coup d'oeil ! - Copyright ORBIFLY Décembre 2007 - Disclaimer

ORBIFLY MET'MAP TEAM :

Programmation & Développement : Alexandra Zaïnal
Conception & Développement : Baudouin d'Aumeries
Co-Programmation & Développement : Marc-Olivier Méhu
Soutien technique & logistique : Manuel Goepfert

Contact : metmap@orbifly.com




SOURCES & CREDITS :

   NOAA